sensor_id;sensor_type;location;lat;lon;timestamp;P1;durP1;ratioP1;P2;durP2;ratioP2
77495;SDS011;66600;48.378;9.948;2023-04-09T00:02:08;25.58;;;14.50;;
77495;SDS011;66600;48.378;9.948;2023-04-09T00:04:33;26.27;;;15.00;;
77495;SDS011;66600;48.378;9.948;2023-04-09T00:06:59;25.67;;;15.15;;
77495;SDS011;66600;48.378;9.948;2023-04-09T00:09:24;27.67;;;15.13;;
77495;SDS011;66600;48.378;9.948;2023-04-09T00:11:50;28.70;;;15.52;;
77495;SDS011;66600;48.378;9.948;2023-04-09T00:14:15;28.55;;;15.40;;
77495;SDS011;66600;48.378;9.948;2023-04-09T00:16:40;27.17;;;14.95;;
77495;SDS011;66600;48.378;9.948;2023-04-09T00:19:06;26.35;;;15.13;;
77495;SDS011;66600;48.378;9.948;2023-04-09T00:21:31;27.25;;;15.38;;
77495;SDS011;66600;48.378;9.948;2023-04-09T00:23:56;27.08;;;15.75;;
77495;SDS011;66600;48.378;9.948;2023-04-09T00:26:22;27.52;;;15.85;;
77495;SDS011;66600;48.378;9.948;2023-04-09T00:28:47;30.63;;;15.23;;
77495;SDS011;66600;48.378;9.948;2023-04-09T00:31:12;26.75;;;15.10;;
77495;SDS011;66600;48.378;9.948;2023-04-09T00:33:38;28.17;;;15.52;;
77495;SDS011;66600;48.378;9.948;2023-04-09T00:36:03;26.88;;;15.25;;
77495;SDS011;66600;48.378;9.948;2023-04-09T00:38:29;27.70;;;15.98;;
77495;SDS011;66600;48.378;9.948;2023-04-09T00:40:54;27.63;;;16.05;;
77495;SDS011;66600;48.378;9.948;2023-04-09T00:43:20;28.70;;;16.38;;
77495;SDS011;66600;48.378;9.948;2023-04-09T00:45:46;30.42;;;16.75;;
77495;SDS011;66600;48.378;9.948;2023-04-09T00:48:12;29.67;;;16.10;;
77495;SDS011;66600;48.378;9.948;2023-04-09T00:50:37;27.10;;;16.10;;
77495;SDS011;66600;48.378;9.948;2023-04-09T00:53:03;25.95;;;15.45;;
77495;SDS011;66600;48.378;9.948;2023-04-09T00:55:29;26.67;;;15.23;;
77495;SDS011;66600;48.378;9.948;2023-04-09T00:57:55;28.83;;;15.55;;
77495;SDS011;66600;48.378;9.948;2023-04-09T01:00:20;26.92;;;15.85;;
77495;SDS011;66600;48.378;9.948;2023-04-09T01:02:46;30.60;;;16.73;;
77495;SDS011;66600;48.378;9.948;2023-04-09T01:05:12;29.08;;;16.05;;
77495;SDS011;66600;48.378;9.948;2023-04-09T01:10:41;31.33;;;16.27;;
77495;SDS011;66600;48.378;9.948;2023-04-09T01:13:06;26.83;;;15.98;;
77495;SDS011;66600;48.378;9.948;2023-04-09T01:15:37;28.02;;;15.50;;
77495;SDS011;66600;48.378;9.948;2023-04-09T01:18:12;27.65;;;15.23;;
77495;SDS011;66600;48.378;9.948;2023-04-09T01:20:55;26.48;;;15.07;;
77495;SDS011;66600;48.378;9.948;2023-04-09T01:28:44;25.70;;;14.30;;
77495;SDS011;66600;48.378;9.948;2023-04-09T01:31:12;26.93;;;14.80;;
77495;SDS011;66600;48.378;9.948;2023-04-09T01:33:42;26.90;;;14.70;;
77495;SDS011;66600;48.378;9.948;2023-04-09T01:36:08;26.33;;;14.60;;
77495;SDS011;66600;48.378;9.948;2023-04-09T01:38:35;29.83;;;14.90;;
77495;SDS011;66600;48.378;9.948;2023-04-09T01:41:03;27.95;;;15.15;;
77495;SDS011;66600;48.378;9.948;2023-04-09T01:43:29;27.75;;;15.25;;
77495;SDS011;66600;48.378;9.948;2023-04-09T01:45:58;26.30;;;14.30;;
77495;SDS011;66600;48.378;9.948;2023-04-09T01:48:25;26.60;;;15.38;;
77495;SDS011;66600;48.378;9.948;2023-04-09T01:50:51;27.40;;;15.48;;
77495;SDS011;66600;48.378;9.948;2023-04-09T01:53:16;27.33;;;15.38;;
77495;SDS011;66600;48.378;9.948;2023-04-09T01:55:42;29.55;;;15.52;;
77495;SDS011;66600;48.378;9.948;2023-04-09T01:58:07;29.70;;;15.95;;
77495;SDS011;66600;48.378;9.948;2023-04-09T02:00:39;28.08;;;15.13;;
77495;SDS011;66600;48.378;9.948;2023-04-09T02:03:20;26.13;;;14.70;;
77495;SDS011;66600;48.378;9.948;2023-04-09T02:05:54;26.92;;;15.32;;
77495;SDS011;66600;48.378;9.948;2023-04-09T02:08:21;28.27;;;15.35;;
77495;SDS011;66600;48.378;9.948;2023-04-09T02:10:53;26.85;;;15.25;;
77495;SDS011;66600;48.378;9.948;2023-04-09T02:13:20;28.17;;;15.88;;
77495;SDS011;66600;48.378;9.948;2023-04-09T02:15:47;25.67;;;14.93;;
77495;SDS011;66600;48.378;9.948;2023-04-09T02:18:21;27.77;;;15.80;;
77495;SDS011;66600;48.378;9.948;2023-04-09T02:20:47;29.55;;;16.20;;
77495;SDS011;66600;48.378;9.948;2023-04-09T02:23:14;25.67;;;15.10;;
77495;SDS011;66600;48.378;9.948;2023-04-09T02:25:40;28.67;;;15.63;;
77495;SDS011;66600;48.378;9.948;2023-04-09T02:28:05;28.13;;;15.43;;
77495;SDS011;66600;48.378;9.948;2023-04-09T02:30:30;31.33;;;15.93;;
77495;SDS011;66600;48.378;9.948;2023-04-09T02:32:56;29.08;;;15.63;;
77495;SDS011;66600;48.378;9.948;2023-04-09T02:35:21;28.35;;;16.00;;
77495;SDS011;66600;48.378;9.948;2023-04-09T02:37:46;29.08;;;16.23;;
77495;SDS011;66600;48.378;9.948;2023-04-09T02:40:11;27.90;;;15.98;;
77495;SDS011;66600;48.378;9.948;2023-04-09T02:42:37;27.75;;;15.88;;
77495;SDS011;66600;48.378;9.948;2023-04-09T02:45:02;29.73;;;16.90;;
77495;SDS011;66600;48.378;9.948;2023-04-09T02:47:28;29.17;;;16.05;;
77495;SDS011;66600;48.378;9.948;2023-04-09T02:49:54;30.52;;;16.63;;
77495;SDS011;66600;48.378;9.948;2023-04-09T02:52:19;29.92;;;16.95;;
77495;SDS011;66600;48.378;9.948;2023-04-09T02:54:48;31.77;;;16.45;;
77495;SDS011;66600;48.378;9.948;2023-04-09T02:57:13;29.80;;;15.52;;
77495;SDS011;66600;48.378;9.948;2023-04-09T02:59:39;28.40;;;15.60;;
77495;SDS011;66600;48.378;9.948;2023-04-09T03:02:04;27.45;;;15.10;;
77495;SDS011;66600;48.378;9.948;2023-04-09T03:04:30;29.10;;;15.55;;
77495;SDS011;66600;48.378;9.948;2023-04-09T03:06:55;27.50;;;15.45;;
77495;SDS011;66600;48.378;9.948;2023-04-09T03:09:20;28.42;;;15.60;;
77495;SDS011;66600;48.378;9.948;2023-04-09T03:11:46;30.88;;;16.63;;
77495;SDS011;66600;48.378;9.948;2023-04-09T03:14:11;28.25;;;15.52;;
77495;SDS011;66600;48.378;9.948;2023-04-09T03:16:36;31.33;;;16.42;;
77495;SDS011;66600;48.378;9.948;2023-04-09T03:19:01;28.67;;;15.80;;
77495;SDS011;66600;48.378;9.948;2023-04-09T03:21:27;29.17;;;15.95;;
77495;SDS011;66600;48.378;9.948;2023-04-09T03:23:52;30.13;;;16.63;;
77495;SDS011;66600;48.378;9.948;2023-04-09T03:26:17;32.55;;;17.38;;
77495;SDS011;66600;48.378;9.948;2023-04-09T03:28:43;31.23;;;16.20;;
77495;SDS011;66600;48.378;9.948;2023-04-09T03:31:08;31.08;;;16.08;;
77495;SDS011;66600;48.378;9.948;2023-04-09T03:33:33;32.53;;;17.50;;
77495;SDS011;66600;48.378;9.948;2023-04-09T03:35:59;30.52;;;16.73;;
77495;SDS011;66600;48.378;9.948;2023-04-09T03:38:24;28.77;;;16.40;;
77495;SDS011;66600;48.378;9.948;2023-04-09T03:40:49;30.23;;;16.75;;
77495;SDS011;66600;48.378;9.948;2023-04-09T03:43:15;30.08;;;16.63;;
77495;SDS011;66600;48.378;9.948;2023-04-09T03:45:40;33.20;;;16.38;;
77495;SDS011;66600;48.378;9.948;2023-04-09T03:48:05;30.17;;;17.05;;
77495;SDS011;66600;48.378;9.948;2023-04-09T03:50:31;31.20;;;16.63;;
77495;SDS011;66600;48.378;9.948;2023-04-09T03:53:02;31.40;;;17.50;;
77495;SDS011;66600;48.378;9.948;2023-04-09T03:55:27;32.58;;;16.80;;
77495;SDS011;66600;48.378;9.948;2023-04-09T03:57:52;31.00;;;16.50;;
77495;SDS011;66600;48.378;9.948;2023-04-09T04:00:17;32.13;;;17.05;;
77495;SDS011;66600;48.378;9.948;2023-04-09T04:02:43;34.83;;;18.45;;
77495;SDS011;66600;48.378;9.948;2023-04-09T04:05:08;33.80;;;17.25;;
77495;SDS011;66600;48.378;9.948;2023-04-09T04:07:33;29.92;;;17.05;;
77495;SDS011;66600;48.378;9.948;2023-04-09T04:09:59;33.03;;;17.60;;
77495;SDS011;66600;48.378;9.948;2023-04-09T04:12:24;33.83;;;17.08;;
77495;SDS011;66600;48.378;9.948;2023-04-09T04:14:49;34.65;;;17.90;;
77495;SDS011;66600;48.378;9.948;2023-04-09T04:17:16;31.95;;;16.75;;
77495;SDS011;66600;48.378;9.948;2023-04-09T04:19:41;32.58;;;17.67;;
77495;SDS011;66600;48.378;9.948;2023-04-09T04:22:06;31.27;;;17.02;;
77495;SDS011;66600;48.378;9.948;2023-04-09T04:24:32;34.53;;;18.02;;
77495;SDS011;66600;48.378;9.948;2023-04-09T04:26:57;33.60;;;17.88;;
77495;SDS011;66600;48.378;9.948;2023-04-09T04:29:22;34.25;;;18.10;;
77495;SDS011;66600;48.378;9.948;2023-04-09T04:31:48;34.17;;;18.35;;
77495;SDS011;66600;48.378;9.948;2023-04-09T04:34:13;33.42;;;17.08;;
77495;SDS011;66600;48.378;9.948;2023-04-09T04:36:38;31.13;;;16.85;;
77495;SDS011;66600;48.378;9.948;2023-04-09T04:39:03;31.20;;;16.70;;
77495;SDS011;66600;48.378;9.948;2023-04-09T04:41:29;29.55;;;16.25;;
77495;SDS011;66600;48.378;9.948;2023-04-09T04:43:54;32.33;;;17.42;;
77495;SDS011;66600;48.378;9.948;2023-04-09T04:46:21;34.30;;;17.58;;
77495;SDS011;66600;48.378;9.948;2023-04-09T04:48:46;33.45;;;17.15;;
77495;SDS011;66600;48.378;9.948;2023-04-09T04:51:11;31.10;;;16.48;;
77495;SDS011;66600;48.378;9.948;2023-04-09T04:53:37;35.30;;;16.55;;
77495;SDS011;66600;48.378;9.948;2023-04-09T04:56:02;31.20;;;16.55;;
77495;SDS011;66600;48.378;9.948;2023-04-09T04:58:27;31.02;;;17.13;;
77495;SDS011;66600;48.378;9.948;2023-04-09T05:00:54;32.03;;;16.83;;
77495;SDS011;66600;48.378;9.948;2023-04-09T05:03:19;30.92;;;17.27;;
77495;SDS011;66600;48.378;9.948;2023-04-09T05:05:45;29.83;;;16.45;;
77495;SDS011;66600;48.378;9.948;2023-04-09T05:08:10;31.30;;;17.23;;
77495;SDS011;66600;48.378;9.948;2023-04-09T05:10:35;31.40;;;17.75;;
77495;SDS011;66600;48.378;9.948;2023-04-09T05:13:01;31.05;;;16.10;;
77495;SDS011;66600;48.378;9.948;2023-04-09T05:15:26;32.70;;;16.13;;
77495;SDS011;66600;48.378;9.948;2023-04-09T05:17:51;33.78;;;17.15;;
77495;SDS011;66600;48.378;9.948;2023-04-09T05:20:17;30.50;;;17.02;;
77495;SDS011;66600;48.378;9.948;2023-04-09T05:22:42;30.33;;;16.30;;
77495;SDS011;66600;48.378;9.948;2023-04-09T05:25:07;30.13;;;16.75;;
77495;SDS011;66600;48.378;9.948;2023-04-09T05:27:34;29.85;;;16.70;;
77495;SDS011;66600;48.378;9.948;2023-04-09T05:29:59;29.85;;;16.92;;
77495;SDS011;66600;48.378;9.948;2023-04-09T05:32:25;30.90;;;16.77;;
77495;SDS011;66600;48.378;9.948;2023-04-09T05:34:50;31.58;;;17.83;;
77495;SDS011;66600;48.378;9.948;2023-04-09T05:37:15;33.97;;;17.02;;
77495;SDS011;66600;48.378;9.948;2023-04-09T05:39:41;31.02;;;16.85;;
77495;SDS011;66600;48.378;9.948;2023-04-09T05:42:06;34.78;;;18.02;;
77495;SDS011;66600;48.378;9.948;2023-04-09T05:44:31;32.38;;;16.63;;
77495;SDS011;66600;48.378;9.948;2023-04-09T05:46:56;30.75;;;17.40;;
77495;SDS011;66600;48.378;9.948;2023-04-09T05:49:22;30.33;;;16.90;;
77495;SDS011;66600;48.378;9.948;2023-04-09T05:51:48;30.73;;;17.25;;
77495;SDS011;66600;48.378;9.948;2023-04-09T05:54:14;31.98;;;17.25;;
77495;SDS011;66600;48.378;9.948;2023-04-09T05:56:41;31.40;;;17.38;;
77495;SDS011;66600;48.378;9.948;2023-04-09T05:59:07;32.28;;;17.70;;
77495;SDS011;66600;48.378;9.948;2023-04-09T06:01:32;34.30;;;18.92;;
77495;SDS011;66600;48.378;9.948;2023-04-09T06:03:57;34.95;;;18.25;;
77495;SDS011;66600;48.378;9.948;2023-04-09T06:06:23;36.83;;;19.38;;
77495;SDS011;66600;48.378;9.948;2023-04-09T06:08:48;33.28;;;18.15;;
77495;SDS011;66600;48.378;9.948;2023-04-09T06:11:13;32.70;;;17.42;;
77495;SDS011;66600;48.378;9.948;2023-04-09T06:13:38;34.45;;;18.35;;
77495;SDS011;66600;48.378;9.948;2023-04-09T06:16:07;29.23;;;16.00;;
77495;SDS011;66600;48.378;9.948;2023-04-09T06:18:33;32.20;;;17.90;;
77495;SDS011;66600;48.378;9.948;2023-04-09T06:21:05;31.92;;;17.33;;
77495;SDS011;66600;48.378;9.948;2023-04-09T06:23:32;33.70;;;18.20;;
77495;SDS011;66600;48.378;9.948;2023-04-09T06:25:59;30.20;;;16.83;;
77495;SDS011;66600;48.378;9.948;2023-04-09T06:28:24;31.50;;;16.80;;
77495;SDS011;66600;48.378;9.948;2023-04-09T06:30:50;32.40;;;18.00;;
77495;SDS011;66600;48.378;9.948;2023-04-09T06:33:17;31.20;;;17.60;;
77495;SDS011;66600;48.378;9.948;2023-04-09T06:35:42;29.48;;;16.25;;
77495;SDS011;66600;48.378;9.948;2023-04-09T06:38:08;29.10;;;16.50;;
77495;SDS011;66600;48.378;9.948;2023-04-09T06:40:35;32.35;;;17.73;;
77495;SDS011;66600;48.378;9.948;2023-04-09T06:43:02;32.42;;;17.75;;
77495;SDS011;66600;48.378;9.948;2023-04-09T06:45:27;31.88;;;16.70;;
77495;SDS011;66600;48.378;9.948;2023-04-09T06:47:53;29.88;;;16.67;;
77495;SDS011;66600;48.378;9.948;2023-04-09T06:50:18;30.88;;;16.60;;
77495;SDS011;66600;48.378;9.948;2023-04-09T06:52:43;32.58;;;17.65;;
77495;SDS011;66600;48.378;9.948;2023-04-09T06:55:09;34.58;;;18.88;;
77495;SDS011;66600;48.378;9.948;2023-04-09T06:57:35;35.40;;;18.45;;
77495;SDS011;66600;48.378;9.948;2023-04-09T07:00:01;31.27;;;16.75;;
77495;SDS011;66600;48.378;9.948;2023-04-09T07:02:27;33.92;;;16.73;;
77495;SDS011;66600;48.378;9.948;2023-04-09T07:04:52;29.17;;;15.02;;
77495;SDS011;66600;48.378;9.948;2023-04-09T07:07:18;33.20;;;17.80;;
77495;SDS011;66600;48.378;9.948;2023-04-09T07:09:44;33.17;;;17.55;;
77495;SDS011;66600;48.378;9.948;2023-04-09T07:12:10;31.10;;;17.52;;
77495;SDS011;66600;48.378;9.948;2023-04-09T07:14:35;34.03;;;17.45;;
77495;SDS011;66600;48.378;9.948;2023-04-09T07:17:01;33.38;;;17.45;;
77495;SDS011;66600;48.378;9.948;2023-04-09T07:19:26;35.70;;;19.00;;
77495;SDS011;66600;48.378;9.948;2023-04-09T07:21:51;33.55;;;18.48;;
77495;SDS011;66600;48.378;9.948;2023-04-09T07:24:16;33.25;;;17.50;;
77495;SDS011;66600;48.378;9.948;2023-04-09T07:26:42;31.75;;;17.35;;
77495;SDS011;66600;48.378;9.948;2023-04-09T07:29:07;30.65;;;16.85;;
77495;SDS011;66600;48.378;9.948;2023-04-09T07:31:33;29.55;;;16.70;;
77495;SDS011;66600;48.378;9.948;2023-04-09T07:33:58;34.70;;;17.15;;
77495;SDS011;66600;48.378;9.948;2023-04-09T07:36:23;34.70;;;18.25;;
77495;SDS011;66600;48.378;9.948;2023-04-09T07:38:49;31.88;;;17.27;;
77495;SDS011;66600;48.378;9.948;2023-04-09T07:41:15;33.40;;;17.08;;
77495;SDS011;66600;48.378;9.948;2023-04-09T07:43:40;38.92;;;19.77;;
77495;SDS011;66600;48.378;9.948;2023-04-09T07:46:06;35.47;;;19.00;;
77495;SDS011;66600;48.378;9.948;2023-04-09T07:48:31;30.48;;;17.00;;
77495;SDS011;66600;48.378;9.948;2023-04-09T07:50:57;35.15;;;19.63;;
77495;SDS011;66600;48.378;9.948;2023-04-09T07:53:22;29.63;;;16.15;;
77495;SDS011;66600;48.378;9.948;2023-04-09T07:55:49;30.40;;;16.50;;
77495;SDS011;66600;48.378;9.948;2023-04-09T07:58:15;29.98;;;16.90;;
77495;SDS011;66600;48.378;9.948;2023-04-09T08:00:40;32.00;;;17.25;;
77495;SDS011;66600;48.378;9.948;2023-04-09T08:03:06;28.02;;;16.25;;
77495;SDS011;66600;48.378;9.948;2023-04-09T08:05:31;29.30;;;17.27;;
77495;SDS011;66600;48.378;9.948;2023-04-09T08:07:56;28.65;;;15.77;;
77495;SDS011;66600;48.378;9.948;2023-04-09T08:10:22;29.45;;;15.70;;
77495;SDS011;66600;48.378;9.948;2023-04-09T08:12:47;29.15;;;15.73;;
77495;SDS011;66600;48.378;9.948;2023-04-09T08:15:13;30.63;;;17.25;;
77495;SDS011;66600;48.378;9.948;2023-04-09T08:17:39;33.47;;;17.30;;
77495;SDS011;66600;48.378;9.948;2023-04-09T08:20:04;37.00;;;18.20;;
77495;SDS011;66600;48.378;9.948;2023-04-09T08:22:30;30.42;;;16.98;;
77495;SDS011;66600;48.378;9.948;2023-04-09T08:24:56;28.00;;;16.33;;
77495;SDS011;66600;48.378;9.948;2023-04-09T08:27:22;27.15;;;15.35;;
77495;SDS011;66600;48.378;9.948;2023-04-09T08:29:48;29.13;;;15.15;;
77495;SDS011;66600;48.378;9.948;2023-04-09T08:32:14;29.08;;;17.02;;
77495;SDS011;66600;48.378;9.948;2023-04-09T08:34:39;28.85;;;16.25;;
77495;SDS011;66600;48.378;9.948;2023-04-09T08:37:05;27.00;;;15.55;;
77495;SDS011;66600;48.378;9.948;2023-04-09T08:39:30;25.60;;;15.40;;
77495;SDS011;66600;48.378;9.948;2023-04-09T08:41:59;24.45;;;14.57;;
77495;SDS011;66600;48.378;9.948;2023-04-09T08:46:51;24.73;;;14.30;;
77495;SDS011;66600;48.378;9.948;2023-04-09T08:49:16;23.13;;;13.93;;
77495;SDS011;66600;48.378;9.948;2023-04-09T08:51:44;22.40;;;14.18;;
77495;SDS011;66600;48.378;9.948;2023-04-09T08:54:13;21.15;;;12.88;;
77495;SDS011;66600;48.378;9.948;2023-04-09T08:56:43;18.60;;;12.18;;
77495;SDS011;66600;48.378;9.948;2023-04-09T08:59:09;20.90;;;13.18;;
77495;SDS011;66600;48.378;9.948;2023-04-09T09:01:35;24.65;;;14.40;;
77495;SDS011;66600;48.378;9.948;2023-04-09T09:04:04;24.98;;;16.30;;
77495;SDS011;66600;48.378;9.948;2023-04-09T09:06:32;19.42;;;12.82;;
77495;SDS011;66600;48.378;9.948;2023-04-09T09:09:17;21.30;;;12.83;;
77495;SDS011;66600;48.378;9.948;2023-04-09T09:11:46;19.98;;;12.30;;
77495;SDS011;66600;48.378;9.948;2023-04-09T09:14:17;20.83;;;12.95;;
77495;SDS011;66600;48.378;9.948;2023-04-09T09:17:01;20.70;;;12.88;;
77495;SDS011;66600;48.378;9.948;2023-04-09T09:19:28;23.90;;;14.35;;
77495;SDS011;66600;48.378;9.948;2023-04-09T09:22:01;18.98;;;11.48;;
77495;SDS011;66600;48.378;9.948;2023-04-09T09:24:27;18.67;;;12.32;;
77495;SDS011;66600;48.378;9.948;2023-04-09T09:26:53;19.02;;;11.70;;
77495;SDS011;66600;48.378;9.948;2023-04-09T09:29:19;37.53;;;20.27;;
77495;SDS011;66600;48.378;9.948;2023-04-09T09:31:49;38.47;;;21.63;;
77495;SDS011;66600;48.378;9.948;2023-04-09T09:34:15;23.63;;;14.13;;
77495;SDS011;66600;48.378;9.948;2023-04-09T09:36:42;45.13;;;25.17;;
77495;SDS011;66600;48.378;9.948;2023-04-09T09:39:07;25.00;;;16.75;;
77495;SDS011;66600;48.378;9.948;2023-04-09T09:41:37;21.42;;;12.82;;
77495;SDS011;66600;48.378;9.948;2023-04-09T09:46:35;22.50;;;14.18;;
77495;SDS011;66600;48.378;9.948;2023-04-09T09:49:03;16.73;;;11.02;;
77495;SDS011;66600;48.378;9.948;2023-04-09T09:51:30;20.85;;;13.13;;
77495;SDS011;66600;48.378;9.948;2023-04-09T09:53:56;20.83;;;12.57;;
77495;SDS011;66600;48.378;9.948;2023-04-09T09:56:29;24.33;;;14.82;;
77495;SDS011;66600;48.378;9.948;2023-04-09T09:59:15;15.98;;;10.98;;
77495;SDS011;66600;48.378;9.948;2023-04-09T10:01:45;18.25;;;11.27;;
77495;SDS011;66600;48.378;9.948;2023-04-09T10:04:12;18.45;;;11.82;;
77495;SDS011;66600;48.378;9.948;2023-04-09T10:06:42;21.38;;;13.70;;
77495;SDS011;66600;48.378;9.948;2023-04-09T10:09:08;16.10;;;11.90;;
77495;SDS011;66600;48.378;9.948;2023-04-09T10:11:35;16.60;;;10.68;;
77495;SDS011;66600;48.378;9.948;2023-04-09T10:14:01;12.75;;;8.57;;
77495;SDS011;66600;48.378;9.948;2023-04-09T10:16:29;14.82;;;8.75;;
77495;SDS011;66600;48.378;9.948;2023-04-09T10:18:55;10.43;;;7.63;;
77495;SDS011;66600;48.378;9.948;2023-04-09T10:26:31;13.02;;;8.38;;
77495;SDS011;66600;48.378;9.948;2023-04-09T10:31:52;13.93;;;9.32;;
77495;SDS011;66600;48.378;9.948;2023-04-09T10:34:22;11.82;;;8.13;;
77495;SDS011;66600;48.378;9.948;2023-04-09T10:36:59;11.35;;;8.00;;
77495;SDS011;66600;48.378;9.948;2023-04-09T10:39:37;8.48;;;5.78;;
77495;SDS011;66600;48.378;9.948;2023-04-09T10:42:07;10.57;;;6.80;;
77495;SDS011;66600;48.378;9.948;2023-04-09T10:44:41;13.02;;;8.95;;
77495;SDS011;66600;48.378;9.948;2023-04-09T10:47:07;14.13;;;9.50;;
77495;SDS011;66600;48.378;9.948;2023-04-09T10:49:34;11.27;;;7.60;;
77495;SDS011;66600;48.378;9.948;2023-04-09T11:07:16;9.85;;;6.40;;
77495;SDS011;66600;48.378;9.948;2023-04-09T11:09:42;9.88;;;6.38;;
77495;SDS011;66600;48.378;9.948;2023-04-09T11:12:09;9.98;;;6.82;;
77495;SDS011;66600;48.378;9.948;2023-04-09T11:14:35;10.32;;;7.18;;
77495;SDS011;66600;48.378;9.948;2023-04-09T11:17:01;9.95;;;6.90;;
77495;SDS011;66600;48.378;9.948;2023-04-09T11:19:27;10.63;;;7.18;;
77495;SDS011;66600;48.378;9.948;2023-04-09T11:21:52;10.95;;;7.35;;
77495;SDS011;66600;48.378;9.948;2023-04-09T11:24:18;9.40;;;6.82;;
77495;SDS011;66600;48.378;9.948;2023-04-09T11:26:43;10.27;;;6.68;;
77495;SDS011;66600;48.378;9.948;2023-04-09T11:29:09;10.18;;;6.97;;
77495;SDS011;66600;48.378;9.948;2023-04-09T11:31:35;10.35;;;6.97;;
77495;SDS011;66600;48.378;9.948;2023-04-09T11:34:01;10.88;;;6.80;;
77495;SDS011;66600;48.378;9.948;2023-04-09T11:36:27;10.63;;;6.80;;
77495;SDS011;66600;48.378;9.948;2023-04-09T11:38:53;9.80;;;6.72;;
77495;SDS011;66600;48.378;9.948;2023-04-09T11:41:40;10.98;;;6.90;;
77495;SDS011;66600;48.378;9.948;2023-04-09T11:44:05;9.95;;;6.60;;
77495;SDS011;66600;48.378;9.948;2023-04-09T11:46:32;10.88;;;6.90;;
77495;SDS011;66600;48.378;9.948;2023-04-09T11:48:58;9.05;;;6.43;;
77495;SDS011;66600;48.378;9.948;2023-04-09T11:51:25;9.60;;;6.57;;
77495;SDS011;66600;48.378;9.948;2023-04-09T11:53:51;10.82;;;7.15;;
77495;SDS011;66600;48.378;9.948;2023-04-09T11:56:16;10.18;;;6.80;;
77495;SDS011;66600;48.378;9.948;2023-04-09T11:58:45;9.27;;;6.35;;
77495;SDS011;66600;48.378;9.948;2023-04-09T12:01:12;8.93;;;6.10;;
77495;SDS011;66600;48.378;9.948;2023-04-09T12:03:37;8.85;;;6.40;;
77495;SDS011;66600;48.378;9.948;2023-04-09T12:06:04;9.23;;;6.28;;
77495;SDS011;66600;48.378;9.948;2023-04-09T12:08:30;8.73;;;5.90;;
77495;SDS011;66600;48.378;9.948;2023-04-09T12:10:55;7.43;;;5.57;;
77495;SDS011;66600;48.378;9.948;2023-04-09T12:13:30;7.78;;;5.60;;
77495;SDS011;66600;48.378;9.948;2023-04-09T12:15:56;8.10;;;5.47;;
77495;SDS011;66600;48.378;9.948;2023-04-09T12:18:24;7.88;;;5.60;;
77495;SDS011;66600;48.378;9.948;2023-04-09T12:20:50;7.30;;;5.28;;
77495;SDS011;66600;48.378;9.948;2023-04-09T12:23:15;10.77;;;7.78;;
77495;SDS011;66600;48.378;9.948;2023-04-09T12:25:41;7.03;;;4.85;;
77495;SDS011;66600;48.378;9.948;2023-04-09T12:28:08;10.43;;;5.38;;
77495;SDS011;66600;48.378;9.948;2023-04-09T12:30:35;7.47;;;4.95;;
77495;SDS011;66600;48.378;9.948;2023-04-09T12:33:01;9.43;;;7.05;;
77495;SDS011;66600;48.378;9.948;2023-04-09T12:35:27;9.70;;;6.38;;
77495;SDS011;66600;48.378;9.948;2023-04-09T12:37:53;11.05;;;7.53;;
77495;SDS011;66600;48.378;9.948;2023-04-09T12:40:18;9.13;;;6.50;;
77495;SDS011;66600;48.378;9.948;2023-04-09T12:42:44;9.07;;;6.25;;
77495;SDS011;66600;48.378;9.948;2023-04-09T12:45:14;9.23;;;6.45;;
77495;SDS011;66600;48.378;9.948;2023-04-09T12:47:40;7.72;;;5.85;;
77495;SDS011;66600;48.378;9.948;2023-04-09T12:50:07;11.65;;;7.45;;
77495;SDS011;66600;48.378;9.948;2023-04-09T12:52:33;12.45;;;8.18;;
77495;SDS011;66600;48.378;9.948;2023-04-09T12:54:59;9.95;;;6.88;;
77495;SDS011;66600;48.378;9.948;2023-04-09T12:57:25;9.15;;;6.63;;
77495;SDS011;66600;48.378;9.948;2023-04-09T12:59:51;9.18;;;6.22;;
77495;SDS011;66600;48.378;9.948;2023-04-09T13:02:16;9.95;;;6.22;;
77495;SDS011;66600;48.378;9.948;2023-04-09T13:04:42;7.40;;;5.18;;
77495;SDS011;66600;48.378;9.948;2023-04-09T13:07:08;8.77;;;6.30;;
77495;SDS011;66600;48.378;9.948;2023-04-09T13:09:33;9.30;;;5.70;;
77495;SDS011;66600;48.378;9.948;2023-04-09T13:11:59;11.00;;;7.88;;
77495;SDS011;66600;48.378;9.948;2023-04-09T13:14:25;9.90;;;6.10;;
77495;SDS011;66600;48.378;9.948;2023-04-09T13:16:50;7.47;;;5.47;;
77495;SDS011;66600;48.378;9.948;2023-04-09T13:19:16;9.70;;;6.70;;
77495;SDS011;66600;48.378;9.948;2023-04-09T13:21:42;8.23;;;5.85;;
77495;SDS011;66600;48.378;9.948;2023-04-09T13:24:08;8.48;;;5.85;;
77495;SDS011;66600;48.378;9.948;2023-04-09T13:26:33;8.57;;;5.70;;
77495;SDS011;66600;48.378;9.948;2023-04-09T13:28:58;9.77;;;6.53;;
77495;SDS011;66600;48.378;9.948;2023-04-09T13:31:24;8.77;;;6.47;;
77495;SDS011;66600;48.378;9.948;2023-04-09T13:33:49;8.85;;;6.70;;
77495;SDS011;66600;48.378;9.948;2023-04-09T13:36:14;8.68;;;6.40;;
77495;SDS011;66600;48.378;9.948;2023-04-09T13:38:40;11.00;;;6.47;;
77495;SDS011;66600;48.378;9.948;2023-04-09T13:41:05;8.77;;;6.43;;
77495;SDS011;66600;48.378;9.948;2023-04-09T13:43:31;8.20;;;6.25;;
77495;SDS011;66600;48.378;9.948;2023-04-09T13:45:56;9.70;;;6.70;;
77495;SDS011;66600;48.378;9.948;2023-04-09T13:48:22;9.52;;;6.32;;
77495;SDS011;66600;48.378;9.948;2023-04-09T13:50:48;7.57;;;5.80;;
77495;SDS011;66600;48.378;9.948;2023-04-09T13:53:13;8.25;;;6.20;;
77495;SDS011;66600;48.378;9.948;2023-04-09T13:55:39;8.82;;;5.97;;
77495;SDS011;66600;48.378;9.948;2023-04-09T13:58:04;10.10;;;6.15;;
77495;SDS011;66600;48.378;9.948;2023-04-09T14:00:30;12.85;;;8.57;;
77495;SDS011;66600;48.378;9.948;2023-04-09T14:02:56;9.23;;;6.60;;
77495;SDS011;66600;48.378;9.948;2023-04-09T14:05:21;9.20;;;6.43;;
77495;SDS011;66600;48.378;9.948;2023-04-09T14:07:46;8.20;;;5.63;;
77495;SDS011;66600;48.378;9.948;2023-04-09T14:10:12;7.80;;;5.60;;
77495;SDS011;66600;48.378;9.948;2023-04-09T14:12:37;8.73;;;5.90;;
77495;SDS011;66600;48.378;9.948;2023-04-09T14:15:02;8.45;;;5.93;;
77495;SDS011;66600;48.378;9.948;2023-04-09T14:17:28;8.65;;;5.93;;
77495;SDS011;66600;48.378;9.948;2023-04-09T14:19:53;9.00;;;6.40;;
77495;SDS011;66600;48.378;9.948;2023-04-09T14:22:19;8.35;;;5.75;;
77495;SDS011;66600;48.378;9.948;2023-04-09T14:24:44;9.10;;;6.10;;
77495;SDS011;66600;48.378;9.948;2023-04-09T14:27:09;9.73;;;6.60;;
77495;SDS011;66600;48.378;9.948;2023-04-09T14:29:35;7.93;;;5.60;;
77495;SDS011;66600;48.378;9.948;2023-04-09T14:32:00;9.30;;;5.78;;
77495;SDS011;66600;48.378;9.948;2023-04-09T14:34:28;7.60;;;5.30;;
77495;SDS011;66600;48.378;9.948;2023-04-09T14:36:54;7.95;;;5.13;;
77495;SDS011;66600;48.378;9.948;2023-04-09T14:39:20;7.18;;;4.95;;
77495;SDS011;66600;48.378;9.948;2023-04-09T14:41:45;8.75;;;6.18;;
77495;SDS011;66600;48.378;9.948;2023-04-09T14:44:11;7.15;;;5.13;;
77495;SDS011;66600;48.378;9.948;2023-04-09T14:46:36;9.68;;;6.68;;
77495;SDS011;66600;48.378;9.948;2023-04-09T14:49:01;11.43;;;7.82;;
77495;SDS011;66600;48.378;9.948;2023-04-09T14:51:27;7.70;;;5.50;;
77495;SDS011;66600;48.378;9.948;2023-04-09T14:53:56;7.85;;;5.72;;
77495;SDS011;66600;48.378;9.948;2023-04-09T14:56:22;8.07;;;5.55;;
77495;SDS011;66600;48.378;9.948;2023-04-09T14:58:49;8.00;;;5.32;;
77495;SDS011;66600;48.378;9.948;2023-04-09T15:01:15;8.18;;;5.50;;